createdAt,value
2019-06-26T00:00:12.982Z,2.22
2019-06-26T00:02:41.760Z,2.02
2019-06-26T00:05:10.688Z,2.80
2019-06-26T00:07:39.530Z,2.17
2019-06-26T00:10:08.864Z,2.50
2019-06-26T00:12:39.172Z,2.40
2019-06-26T00:15:08.513Z,3.05
2019-06-26T00:17:37.298Z,2.70
2019-06-26T00:20:06.959Z,2.20
2019-06-26T00:22:35.772Z,2.75
2019-06-26T00:25:06.511Z,2.62
2019-06-26T00:27:35.343Z,2.15
2019-06-26T00:30:09.022Z,3.00
2019-06-26T00:32:37.792Z,3.33
2019-06-26T00:35:06.621Z,2.80
2019-06-26T00:37:35.463Z,3.67
2019-06-26T00:40:06.403Z,3.60
2019-06-26T00:42:35.260Z,2.87
2019-06-26T00:45:05.761Z,3.30
2019-06-26T00:47:34.612Z,2.80
2019-06-26T00:50:04.157Z,3.85
2019-06-26T00:52:33.040Z,3.67
2019-06-26T00:55:01.893Z,2.80
2019-06-26T00:57:30.734Z,2.37
2019-06-26T01:00:01.271Z,2.83
2019-06-26T01:02:30.079Z,3.10
2019-06-26T01:05:00.565Z,2.52
2019-06-26T01:07:29.333Z,2.60
2019-06-26T01:09:58.135Z,3.12
2019-06-26T01:12:26.947Z,3.22
2019-06-26T01:14:55.825Z,3.77
2019-06-26T01:17:24.824Z,3.22
2019-06-26T01:19:53.727Z,3.17
2019-06-26T01:22:22.551Z,3.55
2019-06-26T01:24:51.395Z,3.50
2019-06-26T01:27:20.144Z,4.05
2019-06-26T01:29:48.930Z,3.45
2019-06-26T01:32:19.216Z,3.20
2019-06-26T01:34:48.074Z,3.60
2019-06-26T01:37:16.923Z,3.55
2019-06-26T01:39:49.101Z,3.45
2019-06-26T01:42:17.880Z,4.15
2019-06-26T01:44:46.660Z,3.83
2019-06-26T01:47:15.481Z,4.12
2019-06-26T01:49:44.309Z,3.92
2019-06-26T01:52:13.072Z,4.33
2019-06-26T01:54:41.908Z,3.47
2019-06-26T01:57:10.751Z,3.02
2019-06-26T01:59:39.584Z,4.92
2019-06-26T02:02:08.344Z,3.98
2019-06-26T02:04:37.101Z,5.47
2019-06-26T02:07:05.944Z,3.65
2019-06-26T02:09:34.773Z,4.70
2019-06-26T02:12:03.629Z,5.12
2019-06-26T02:14:32.484Z,5.12
2019-06-26T02:17:01.339Z,7.10
2019-06-26T02:19:30.079Z,6.40
2019-06-26T02:21:58.944Z,5.40
2019-06-26T02:24:27.657Z,5.97
2019-06-26T02:26:56.417Z,4.67
2019-06-26T02:29:25.287Z,4.50
2019-06-26T02:31:54.006Z,4.72
2019-06-26T02:34:22.769Z,3.90
2019-06-26T02:36:51.508Z,4.17
2019-06-26T02:39:20.339Z,5.20
2019-06-26T02:41:49.201Z,4.60
2019-06-26T02:44:18.044Z,3.60
2019-06-26T02:46:46.907Z,4.42
2019-06-26T02:49:15.680Z,3.55
2019-06-26T02:51:44.486Z,4.35
2019-06-26T02:54:13.415Z,3.12
2019-06-26T02:56:42.237Z,3.33
2019-06-26T02:59:11.073Z,4.12
2019-06-26T03:01:39.891Z,4.60
2019-06-26T03:04:08.727Z,3.50
2019-06-26T03:06:37.563Z,3.37
2019-06-26T03:09:07.401Z,3.40
2019-06-26T03:11:36.201Z,3.00
2019-06-26T03:14:05.022Z,3.00
2019-06-26T03:16:33.794Z,3.87
2019-06-26T03:19:02.658Z,3.40
2019-06-26T03:21:31.507Z,2.85
2019-06-26T03:24:00.244Z,3.75
2019-06-26T03:26:29.100Z,3.15
2019-06-26T03:28:57.965Z,3.25
2019-06-26T03:31:26.801Z,3.50
2019-06-26T03:33:55.551Z,2.95
2019-06-26T03:36:24.443Z,3.40
2019-06-26T03:38:53.281Z,3.83
2019-06-26T03:41:22.033Z,3.42
2019-06-26T03:43:50.961Z,3.55
2019-06-26T03:46:19.870Z,3.10
2019-06-26T03:48:48.636Z,3.22
2019-06-26T03:51:18.041Z,3.47
2019-06-26T03:53:46.861Z,2.50
2019-06-26T03:56:15.712Z,2.42
2019-06-26T03:58:44.525Z,2.90
2019-06-26T04:01:13.385Z,3.70
2019-06-26T04:03:42.210Z,2.80
2019-06-26T04:06:11.040Z,3.27
2019-06-26T04:08:39.956Z,3.10
2019-06-26T04:11:08.735Z,2.08
2019-06-26T04:13:40.297Z,3.10
2019-06-26T04:16:09.043Z,1.95
2019-06-26T04:18:38.779Z,2.62
2019-06-26T04:21:07.622Z,2.77
2019-06-26T04:23:36.458Z,2.70
2019-06-26T04:26:05.322Z,2.72
2019-06-26T04:28:34.207Z,2.85
2019-06-26T04:31:03.130Z,2.55
2019-06-26T04:33:31.978Z,2.98
2019-06-26T04:36:00.824Z,2.37
2019-06-26T04:38:29.667Z,2.60
2019-06-26T04:40:58.513Z,2.65
2019-06-26T04:43:28.653Z,2.83
2019-06-26T04:45:58.682Z,2.42
2019-06-26T04:48:27.729Z,4.33
2019-06-26T04:50:56.586Z,3.55
2019-06-26T04:53:25.393Z,3.17
2019-06-26T04:55:54.306Z,2.90
2019-06-26T04:58:23.056Z,2.95
2019-06-26T05:00:51.999Z,3.02
2019-06-26T05:03:20.806Z,2.40
2019-06-26T05:05:49.655Z,2.17
2019-06-26T05:08:19.673Z,2.60
2019-06-26T05:10:48.502Z,2.35
2019-06-26T05:13:17.328Z,2.98
2019-06-26T05:15:46.173Z,2.35
2019-06-26T05:18:15.015Z,3.05
2019-06-26T05:20:43.779Z,3.98
2019-06-26T05:23:12.543Z,2.52
2019-06-26T05:25:41.719Z,2.08
2019-06-26T05:28:10.477Z,2.40
2019-06-26T05:30:39.364Z,2.25
2019-06-26T05:33:08.169Z,2.77
2019-06-26T05:35:36.934Z,2.55
2019-06-26T05:38:05.776Z,2.90
2019-06-26T05:40:34.550Z,2.40
2019-06-26T05:43:03.411Z,2.27
2019-06-26T05:45:32.253Z,2.95
2019-06-26T05:48:01.120Z,2.50
2019-06-26T05:50:29.940Z,2.92
2019-06-26T05:52:58.837Z,2.80
2019-06-26T05:55:27.754Z,2.67
2019-06-26T05:57:56.591Z,3.30
2019-06-26T06:00:25.446Z,2.80
2019-06-26T06:02:54.347Z,2.62
2019-06-26T06:05:23.132Z,4.37
2019-06-26T06:07:51.988Z,2.25
2019-06-26T06:10:21.109Z,2.60
2019-06-26T06:12:49.940Z,2.40
2019-06-26T06:15:19.965Z,2.12
2019-06-26T06:17:49.321Z,3.00
2019-06-26T06:20:23.761Z,2.77
2019-06-26T06:22:52.627Z,3.30
2019-06-26T06:25:21.453Z,3.25
2019-06-26T06:27:50.288Z,2.00
2019-06-26T06:30:19.259Z,2.65
2019-06-26T06:32:48.031Z,2.67
2019-06-26T06:35:16.859Z,3.83
2019-06-26T06:37:45.694Z,3.33
2019-06-26T06:40:14.535Z,2.60
2019-06-26T06:42:43.373Z,3.40
2019-06-26T06:45:12.336Z,2.60
2019-06-26T06:47:41.164Z,2.85
2019-06-26T06:50:10.653Z,3.15
2019-06-26T06:52:39.518Z,2.37
2019-06-26T06:55:08.349Z,2.77
2019-06-26T06:57:37.224Z,3.30
2019-06-26T07:00:07.717Z,2.77
2019-06-26T07:02:36.564Z,2.67
2019-06-26T07:05:08.702Z,2.85
2019-06-26T07:07:37.588Z,3.02
2019-06-26T07:10:08.024Z,2.52
2019-06-26T07:12:36.862Z,3.65
2019-06-26T07:15:09.581Z,2.30
2019-06-26T07:17:38.416Z,3.95
2019-06-26T07:20:07.635Z,2.87
2019-06-26T07:22:36.511Z,2.60
2019-06-26T07:25:06.117Z,2.47
2019-06-26T07:27:34.959Z,2.40
2019-06-26T07:30:05.189Z,2.15
2019-06-26T07:32:34.061Z,2.40
2019-06-26T07:35:02.947Z,2.20
2019-06-26T07:37:31.676Z,1.92
2019-06-26T07:40:02.016Z,1.82
2019-06-26T07:42:30.916Z,2.25
2019-06-26T07:44:59.791Z,6.50
2019-06-26T07:47:42.355Z,1.82
2019-06-26T07:49:59.137Z,1.60
2019-06-26T07:52:29.760Z,1.57
2019-06-26T07:54:58.545Z,2.20
2019-06-26T07:57:27.425Z,1.90
2019-06-26T07:59:56.229Z,1.55
2019-06-26T08:02:25.066Z,1.80
2019-06-26T08:04:53.933Z,1.52
2019-06-26T08:07:22.794Z,1.10
2019-06-26T08:09:51.572Z,1.32
2019-06-26T08:12:20.449Z,1.60
2019-06-26T08:14:49.932Z,1.15
2019-06-26T08:17:18.818Z,1.17
2019-06-26T08:19:48.661Z,1.30
2019-06-26T08:22:17.513Z,1.15
2019-06-26T08:24:46.348Z,1.00
2019-06-26T08:27:15.206Z,1.65
2019-06-26T08:29:44.014Z,1.20
2019-06-26T08:32:14.455Z,1.00
2019-06-26T08:34:43.270Z,1.20
2019-06-26T08:37:12.027Z,0.72
2019-06-26T08:39:40.863Z,1.05
2019-06-26T08:42:09.737Z,1.10
2019-06-26T08:44:38.548Z,1.05
2019-06-26T08:47:07.309Z,1.10
2019-06-26T08:49:36.170Z,1.10
2019-06-26T08:52:05.454Z,0.82
2019-06-26T08:54:34.332Z,1.30
2019-06-26T08:57:03.189Z,1.17
2019-06-26T08:59:32.026Z,1.52
2019-06-26T09:02:00.902Z,1.42
2019-06-26T09:04:29.781Z,1.32
2019-06-26T09:06:58.538Z,1.10
2019-06-26T09:09:27.288Z,1.15
2019-06-26T09:11:56.187Z,0.90
2019-06-26T09:14:25.055Z,0.85
2019-06-26T09:16:53.815Z,0.95
2019-06-26T09:19:22.591Z,1.10
2019-06-26T09:21:51.443Z,1.30
2019-06-26T09:24:22.114Z,2.27
2019-06-26T09:26:50.949Z,1.25
2019-06-26T09:29:23.671Z,1.82
2019-06-26T09:31:50.548Z,0.90
2019-06-26T09:34:20.884Z,1.37
2019-06-26T09:36:49.741Z,1.25
2019-06-26T09:39:18.579Z,1.50
2019-06-26T09:41:47.405Z,1.00
2019-06-26T09:44:16.305Z,4.42
2019-06-26T09:46:45.118Z,1.10
2019-06-26T09:49:13.870Z,1.60
2019-06-26T09:51:42.711Z,1.47
2019-06-26T09:54:11.542Z,2.10
2019-06-26T09:56:40.325Z,1.07
2019-06-26T09:59:09.147Z,1.07
2019-06-26T10:01:37.999Z,1.12
2019-06-26T10:04:07.474Z,1.15
2019-06-26T10:06:36.276Z,1.20
2019-06-26T10:09:07.668Z,1.15
2019-06-26T10:11:36.560Z,1.60
2019-06-26T10:14:05.612Z,1.17
2019-06-26T10:16:34.432Z,0.90
2019-06-26T10:19:10.193Z,0.90
2019-06-26T10:21:35.151Z,1.55
2019-06-26T10:24:03.995Z,1.30
2019-06-26T10:26:34.290Z,1.00
2019-06-26T10:29:03.124Z,0.90
2019-06-26T10:31:32.166Z,1.10
2019-06-26T10:34:01.088Z,1.10
2019-06-26T10:36:29.930Z,1.30
2019-06-26T10:38:58.786Z,1.40
2019-06-26T10:41:27.636Z,1.20
2019-06-26T10:43:56.492Z,1.42
2019-06-26T10:46:25.507Z,1.25
2019-06-26T10:48:54.284Z,1.52
2019-06-26T10:51:23.147Z,1.07
2019-06-26T10:53:51.956Z,1.47
2019-06-26T10:56:20.991Z,2.47
2019-06-26T10:58:51.881Z,1.57
2019-06-26T11:01:25.370Z,4.53
2019-06-26T11:03:54.820Z,4.42
2019-06-26T11:08:52.462Z,4.33
2019-06-26T11:11:21.620Z,4.03
2019-06-26T11:13:50.386Z,4.60
2019-06-26T11:16:19.838Z,6.15
2019-06-26T11:18:48.660Z,4.28
2019-06-26T11:21:17.495Z,4.22
2019-06-26T11:23:46.316Z,4.95
2019-06-26T11:26:15.124Z,3.52
2019-06-26T11:28:45.495Z,4.22
2019-06-26T11:31:14.549Z,4.37
2019-06-26T11:33:43.487Z,2.75
2019-06-26T11:36:12.336Z,2.70
2019-06-26T11:38:41.165Z,3.05
2019-06-26T11:41:10.014Z,3.80
2019-06-26T11:43:38.848Z,4.00
2019-06-26T11:46:07.740Z,2.72
2019-06-26T11:48:36.604Z,3.02
2019-06-26T11:51:05.575Z,2.75
2019-06-26T11:53:34.533Z,2.27
2019-06-26T11:56:05.020Z,3.33
2019-06-26T11:58:33.860Z,2.98
2019-06-26T12:01:04.167Z,3.65
2019-06-26T12:03:32.917Z,5.08
2019-06-26T12:06:12.247Z,4.12
2019-06-26T12:08:32.287Z,3.08
2019-06-26T12:11:01.132Z,3.20
2019-06-26T12:13:33.284Z,3.85
2019-06-26T12:16:03.594Z,3.52
2019-06-26T12:18:32.302Z,4.35
2019-06-26T12:21:01.146Z,4.40
2019-06-26T12:23:31.594Z,4.37
2019-06-26T12:26:00.452Z,4.00
2019-06-26T12:28:29.280Z,5.37
2019-06-26T12:30:58.061Z,5.25
2019-06-26T12:33:26.900Z,5.30
2019-06-26T12:35:55.741Z,4.95
2019-06-26T12:38:24.515Z,4.40
2019-06-26T12:40:53.365Z,5.40
2019-06-26T12:43:22.105Z,3.77
2019-06-26T12:45:50.980Z,2.22
2019-06-26T12:48:19.822Z,3.10
2019-06-26T12:50:48.576Z,2.12
2019-06-26T12:53:17.400Z,2.22
2019-06-26T12:55:46.229Z,1.92
2019-06-26T12:58:19.729Z,3.05
2019-06-26T13:00:47.640Z,2.17
2019-06-26T13:03:18.976Z,2.30
2019-06-26T13:05:47.736Z,2.30
2019-06-26T13:08:16.564Z,2.77
2019-06-26T13:10:50.191Z,2.80
2019-06-26T13:13:15.736Z,2.83
2019-06-26T13:15:44.633Z,3.12
2019-06-26T13:18:13.828Z,2.20
2019-06-26T13:20:52.611Z,2.40
2019-06-26T13:23:14.900Z,2.30
2019-06-26T13:25:43.592Z,2.20
2019-06-26T13:28:12.426Z,2.22
2019-06-26T13:30:41.198Z,1.50
2019-06-26T13:33:10.012Z,1.70
2019-06-26T13:35:38.847Z,2.27
2019-06-26T13:38:07.682Z,2.05
2019-06-26T13:40:36.539Z,1.70
2019-06-26T13:43:05.364Z,2.37
2019-06-26T13:45:34.097Z,1.77
2019-06-26T13:48:03.881Z,2.22
2019-06-26T13:50:32.657Z,2.20
2019-06-26T13:53:01.516Z,1.70
2019-06-26T13:55:30.357Z,2.25
2019-06-26T13:58:01.973Z,1.27
2019-06-26T14:00:30.951Z,1.17
2019-06-26T14:02:59.871Z,2.15
2019-06-26T14:05:29.642Z,1.52
2019-06-26T14:07:58.545Z,2.12
2019-06-26T14:10:27.416Z,1.52
2019-06-26T14:12:56.429Z,1.90
2019-06-26T14:15:25.670Z,2.00
2019-06-26T14:17:54.513Z,1.77
2019-06-26T14:20:23.370Z,2.22
2019-06-26T14:22:52.369Z,2.55
2019-06-26T14:25:21.304Z,3.27
2019-06-26T14:27:50.162Z,1.72
2019-06-26T14:30:19.111Z,1.47
2019-06-26T14:32:47.925Z,2.40
2019-06-26T14:35:17.621Z,1.70
2019-06-26T14:37:46.466Z,2.00
2019-06-26T14:40:15.981Z,1.67
2019-06-26T14:42:44.847Z,1.90
2019-06-26T14:45:13.697Z,1.90
2019-06-26T14:47:42.616Z,2.00
2019-06-26T14:50:11.536Z,1.60
2019-06-26T14:52:40.301Z,3.35
2019-06-26T14:55:10.651Z,2.50
2019-06-26T14:57:39.416Z,1.92
2019-06-26T15:00:09.844Z,2.02
2019-06-26T15:02:39.974Z,1.62
2019-06-26T15:05:10.173Z,1.77
2019-06-26T15:07:39.005Z,1.75
2019-06-26T15:10:09.233Z,2.08
2019-06-26T15:12:38.085Z,1.98
2019-06-26T15:15:07.167Z,1.65
2019-06-26T15:17:35.996Z,1.92
2019-06-26T15:20:06.666Z,2.27
2019-06-26T15:22:35.457Z,1.70
2019-06-26T15:25:05.993Z,2.58
2019-06-26T15:27:34.843Z,1.95
2019-06-26T15:30:05.400Z,3.05
2019-06-26T15:32:34.201Z,1.90
2019-06-26T15:35:03.938Z,2.58
2019-06-26T15:37:32.759Z,9.18
2019-06-26T15:40:01.705Z,3.08
2019-06-26T15:42:31.377Z,1.95
2019-06-26T15:45:00.210Z,2.10
2019-06-26T15:47:28.973Z,2.22
2019-06-26T15:49:57.796Z,1.72
2019-06-26T15:52:26.660Z,1.60
2019-06-26T15:54:56.384Z,1.62
2019-06-26T15:57:25.298Z,1.65
2019-06-26T15:59:54.660Z,1.67
2019-06-26T16:02:24.008Z,1.55
2019-06-26T16:04:55.364Z,2.25
2019-06-26T16:07:24.402Z,1.98
2019-06-26T16:09:53.266Z,1.70
2019-06-26T16:12:24.924Z,1.98
2019-06-26T16:14:54.372Z,1.77
2019-06-26T16:17:25.419Z,2.17
2019-06-26T16:19:55.615Z,1.70
2019-06-26T16:22:32.333Z,1.90
2019-06-26T16:24:54.942Z,1.90
2019-06-26T16:27:24.231Z,1.98
2019-06-26T16:29:55.364Z,1.52
2019-06-26T16:32:24.178Z,2.45
2019-06-26T16:34:52.936Z,4.65
2019-06-26T16:37:21.937Z,2.15
2019-06-26T16:39:51.798Z,2.20
2019-06-26T16:42:23.719Z,2.10
2019-06-26T16:44:52.634Z,3.70
2019-06-26T16:47:21.441Z,3.70
2019-06-26T16:49:50.412Z,2.35
2019-06-26T16:52:19.225Z,2.22
2019-06-26T16:54:48.416Z,2.33
2019-06-26T16:57:21.049Z,1.70
2019-06-26T16:59:50.318Z,2.37
2019-06-26T17:02:19.176Z,2.25
2019-06-26T17:04:48.474Z,3.47
2019-06-26T17:07:17.312Z,2.35
2019-06-26T17:09:47.268Z,2.20
2019-06-26T17:12:16.316Z,1.98
2019-06-26T17:14:46.873Z,2.65
2019-06-26T17:17:16.320Z,1.87
2019-06-26T17:19:45.084Z,2.17
2019-06-26T17:22:13.912Z,2.30
2019-06-26T17:24:42.840Z,3.02
2019-06-26T17:27:11.669Z,2.52
2019-06-26T17:29:40.492Z,2.83
2019-06-26T17:32:09.838Z,3.60
2019-06-26T17:34:38.687Z,2.25
2019-06-26T17:37:07.552Z,2.58
2019-06-26T17:39:36.386Z,2.95
2019-06-26T17:42:05.231Z,1.95
2019-06-26T17:44:34.064Z,2.98
2019-06-26T17:47:05.455Z,2.10
2019-06-26T17:49:34.748Z,1.82
2019-06-26T17:52:04.377Z,2.65
2019-06-26T17:54:33.226Z,3.27
2019-06-26T17:57:02.045Z,2.08
2019-06-26T17:59:30.900Z,2.02
2019-06-26T18:01:59.790Z,2.80
2019-06-26T18:04:28.598Z,2.30
2019-06-26T18:06:57.496Z,3.67
2019-06-26T18:09:26.360Z,2.15
2019-06-26T18:11:55.176Z,2.87
2019-06-26T18:14:24.036Z,2.77
2019-06-26T18:16:52.885Z,3.22
2019-06-26T18:19:21.734Z,2.08
2019-06-26T18:21:50.512Z,2.60
2019-06-26T18:24:19.318Z,3.42
2019-06-26T18:26:48.151Z,3.20
2019-06-26T18:29:16.983Z,2.22
2019-06-26T18:31:45.800Z,2.37
2019-06-26T18:34:14.557Z,2.10
2019-06-26T18:36:43.471Z,2.05
2019-06-26T18:39:12.264Z,2.10
2019-06-26T18:41:41.000Z,2.00
2019-06-26T18:44:09.956Z,1.90
2019-06-26T18:46:38.806Z,4.37
2019-06-26T18:49:07.612Z,4.67
2019-06-26T18:51:36.398Z,5.22
2019-06-26T18:54:05.689Z,3.58
2019-06-26T18:56:34.453Z,2.62
2019-06-26T18:59:03.269Z,4.72
2019-06-26T19:01:32.124Z,2.98
2019-06-26T19:04:00.860Z,2.90
2019-06-26T19:06:29.720Z,2.50
2019-06-26T19:09:00.403Z,3.15
2019-06-26T19:11:29.216Z,3.52
2019-06-26T19:13:59.289Z,2.75
2019-06-26T19:16:28.241Z,3.22
2019-06-26T19:18:57.123Z,2.87
2019-06-26T19:21:25.897Z,2.42
2019-06-26T19:24:09.196Z,6.50
2019-06-26T19:26:26.436Z,4.35
2019-06-26T19:28:55.296Z,2.42
2019-06-26T19:31:24.757Z,3.42
2019-06-26T19:33:53.601Z,2.37
2019-06-26T19:36:26.136Z,2.15
2019-06-26T19:38:54.212Z,2.33
2019-06-26T19:41:23.107Z,3.58
2019-06-26T19:43:51.994Z,3.02
2019-06-26T19:46:20.764Z,3.10
2019-06-26T19:48:49.607Z,3.12
2019-06-26T19:51:18.373Z,4.47
2019-06-26T19:53:47.201Z,2.77
2019-06-26T19:56:19.145Z,2.95
2019-06-26T19:58:46.357Z,3.10
2019-06-26T20:01:15.274Z,2.80
2019-06-26T20:03:44.087Z,3.08
2019-06-26T20:06:12.951Z,2.80
2019-06-26T20:08:52.251Z,5.60
2019-06-26T20:11:12.418Z,4.37
2019-06-26T20:13:41.328Z,3.95
2019-06-26T20:16:10.308Z,5.20
2019-06-26T20:18:39.148Z,5.85
2019-06-26T20:21:07.895Z,3.55
2019-06-26T20:23:36.738Z,4.03
2019-06-26T20:26:05.596Z,4.80
2019-06-26T20:28:34.441Z,5.78
2019-06-26T20:31:03.375Z,8.08
2019-06-26T20:33:32.226Z,6.20
2019-06-26T20:36:01.059Z,6.60
2019-06-26T20:38:29.914Z,6.72
2019-06-26T20:40:58.736Z,6.72
2019-06-26T20:43:27.668Z,6.53
2019-06-26T20:45:56.522Z,7.67
2019-06-26T20:48:25.288Z,7.55
2019-06-26T20:50:54.114Z,6.28
2019-06-26T20:53:22.959Z,7.10
2019-06-26T20:55:51.779Z,6.33
2019-06-26T20:58:40.092Z,8.70
2019-06-26T21:01:09.032Z,10.43
2019-06-26T21:04:30.727Z,6.80
2019-06-26T21:06:59.602Z,7.30
2019-06-26T21:09:28.583Z,7.30
2019-06-26T21:11:57.371Z,6.00
2019-06-26T21:14:26.120Z,6.47
2019-06-26T21:16:55.085Z,6.17
2019-06-26T21:19:24.108Z,6.15
2019-06-26T21:21:52.907Z,7.20
2019-06-26T21:24:21.931Z,7.03
2019-06-26T21:26:50.831Z,7.17
2019-06-26T21:29:19.945Z,6.40
2019-06-26T21:31:49.130Z,7.47
2019-06-26T21:34:18.236Z,6.85
2019-06-26T21:36:47.437Z,7.50
2019-06-26T21:39:16.264Z,7.55
2019-06-26T21:41:45.087Z,8.43
2019-06-26T21:44:13.927Z,8.10
2019-06-26T21:46:42.876Z,7.45
2019-06-26T21:49:11.567Z,7.45
2019-06-26T21:51:40.260Z,7.87
2019-06-26T21:54:09.448Z,7.28
2019-06-26T21:56:38.322Z,8.38
2019-06-26T21:59:07.099Z,7.17
2019-06-26T22:01:35.983Z,7.15
2019-06-26T22:04:06.319Z,7.85
2019-06-26T22:06:35.597Z,6.40
2019-06-26T22:09:05.830Z,5.97
2019-06-26T22:11:34.659Z,6.05
2019-06-26T22:14:03.484Z,7.08
2019-06-26T22:16:32.479Z,7.12
2019-06-26T22:19:01.309Z,6.53
2019-06-26T22:21:30.370Z,8.53
2019-06-26T22:23:59.198Z,7.47
2019-06-26T22:26:27.998Z,6.80
2019-06-26T22:28:56.841Z,6.87
2019-06-26T22:31:25.627Z,6.67
2019-06-26T22:33:54.485Z,6.87
2019-06-26T22:36:23.247Z,6.35
2019-06-26T22:38:52.293Z,6.97
2019-06-26T22:41:21.314Z,7.10
2019-06-26T22:43:52.424Z,6.67
2019-06-26T22:46:21.724Z,7.15
2019-06-26T22:48:50.716Z,6.33
2019-06-26T22:51:19.521Z,7.05
2019-06-26T22:53:48.692Z,5.60
2019-06-26T22:56:17.500Z,6.60
2019-06-26T22:58:46.332Z,8.58
2019-06-26T23:01:15.171Z,5.83
2019-06-26T23:03:43.932Z,6.40
2019-06-26T23:06:12.720Z,7.08
2019-06-26T23:08:41.693Z,6.00
2019-06-26T23:11:10.473Z,6.10
2019-06-26T23:13:39.305Z,6.78
2019-06-26T23:16:08.207Z,6.53
2019-06-26T23:18:37.033Z,7.08
2019-06-26T23:21:05.826Z,6.12
2019-06-26T23:23:34.595Z,7.15
2019-06-26T23:26:03.447Z,6.65
2019-06-26T23:28:32.277Z,7.08
2019-06-26T23:31:01.033Z,7.00
2019-06-26T23:33:29.891Z,6.90
2019-06-26T23:35:58.726Z,6.95
2019-06-26T23:38:27.567Z,6.05
2019-06-26T23:40:56.412Z,6.22
2019-06-26T23:43:25.257Z,6.47
2019-06-26T23:45:54.018Z,7.15
2019-06-26T23:48:22.786Z,7.67
2019-06-26T23:50:51.625Z,6.37
2019-06-26T23:53:20.464Z,5.65
2019-06-26T23:55:49.408Z,6.28
2019-06-26T23:58:18.297Z,7.85
